Time;durP1;ratioP1;P1;durP2;ratioP2;P2;SDS_P1;SDS_P2;PMS_P1;PMS_P2;Temp;Humidity;BMP_temperature;BMP_pressure;BME280_temperature;BME280_humidity;BME280_pressure;Samples;Min_cycle;Max_cycle;Signal;HPM_P1;HPM_P2
2022/10/23 00:00:03;;;;;;;;;;;;;;;;;;351276;28;1335;-66
2022/10/23 00:00:14;;;;;;;;;;;;;;;;;;351258;28;1034;-66
2022/10/23 00:00:24;;;;;;;;;;;;;;;;;;351300;28;913;-66
2022/10/23 00:00:34;;;;;;;;;;;;;;;;;;351286;28;1027;-66
2022/10/23 00:00:44;;;;;;;;;;;;;;;;;;350917;28;1867;-66
2022/10/23 00:00:55;;;;;;;;;;;;;;;;;;349950;28;1448;-66
2022/10/23 00:01:12;;;;;;;;;;;;;;;;;;349906;28;829;-66
2022/10/23 00:01:25;;;;;;;;;;;;;;;;;;349924;28;921;-65
2022/10/23 00:01:39;;;;;;;;;;;;;;;;;;349930;28;976;-66
2022/10/23 00:01:49;;;;;;;;;;;;;;;;;;349961;28;929;-66
2022/10/23 00:02:01;;;;;;;;;;;;;;;;;;349931;28;876;-66
2022/10/23 00:02:11;;;;;;;;;;;;;;;;;;349976;28;884;-66
2022/10/23 00:02:21;;;;;;;;;;;;;;;;;;349682;28;1825;-66
2022/10/23 00:02:31;;;;;;;;;;;;;;;;;;350277;28;1687;-66
2022/10/23 00:02:42;;;;;;;;;;;;;;;;;;351343;28;1971;-66
2022/10/23 00:02:52;;;;;;;;;;;;;;;;;;351397;28;845;-66
2022/10/23 00:03:03;;;;;;;;;;;;;;;;;;351330;28;890;-66
2022/10/23 00:03:13;;;;;;;;;;;;;;;;;;351352;28;872;-66
2022/10/23 00:03:23;;;;;;;;;;;;;;;;;;351332;28;911;-66
2022/10/23 00:03:34;;;;;;;;;;;;;;;;;;351245;28;916;-66
2022/10/23 00:03:45;;;;;;;;;;;;;;;;;;351334;28;793;-66
2022/10/23 00:03:56;;;;;;;;;;;;;;;;;;351247;28;1534;-65
2022/10/23 00:04:09;;;;;;;;;;;;;;;;;;351326;28;886;-66
2022/10/23 00:04:20;;;;;;;;;;;;;;;;;;351363;28;904;-66
2022/10/23 00:04:30;;;;;;;;;;;;;;;;;;351310;28;975;-66
2022/10/23 00:04:40;;;;;;;;;;;;;;;;;;351286;28;797;-66
2022/10/23 00:04:51;;;;;;;;;;;;;;;;;;351321;28;923;-66
2022/10/23 00:05:01;;;;;;;;;;;;;;;;;;351393;28;983;-66
2022/10/23 00:05:11;;;;;;;;;;;;;;;;;;351318;28;932;-66
2022/10/23 00:05:22;;;;;;;;;;;;;;;;;;351272;28;1910;-66
2022/10/23 00:05:32;;;;;;;;;;;;;;;;;;351298;28;1031;-66
2022/10/23 00:05:42;;;;;;;;;;;;;;;;;;351310;28;935;-66
2022/10/23 00:05:52;;;;;;;;;;;;;;;;;;351327;28;948;-66
2022/10/23 00:06:03;;;;;;;;;;;;;;;;;;351327;28;960;-66
2022/10/23 00:06:13;;;;;;;;;;;;;;;;;;351311;28;849;-66
2022/10/23 00:06:24;;;;;;;;;;;;;;;;;;351372;28;793;-65
2022/10/23 00:06:35;;;;;;;;;;;;;;;;;;351326;28;920;-66
2022/10/23 00:06:46;;;;;;;;;;;;;;;;;;351234;28;876;-66
2022/10/23 00:06:56;;;;;;;;;;;;;;;;;;351375;28;928;-66
2022/10/23 00:07:06;;;;;;;;;;;;;;;;;;351352;28;927;-66
2022/10/23 00:07:16;;;;;;;;;;;;;;;;;;351278;28;979;-66
2022/10/23 00:07:27;;;;;;;;;;;;;;;;;;351033;28;1559;-65
2022/10/23 00:07:37;;;;;;;;;;;;;;;;;;351250;28;1546;-66
2022/10/23 00:07:50;;;;;;;;;;;;;;;;;;351296;28;920;-67
2022/10/23 00:08:01;;;;;;;;;;;;;;;;;;351294;28;987;-66
2022/10/23 00:08:11;;;;;;;;;;;;;;;;;;351345;28;853;-66
2022/10/23 00:08:21;;;;;;;;;;;;;;;;;;351290;28;1004;-66
2022/10/23 00:08:31;;;;;;;;;;;;;;;;;;351314;28;919;-66
2022/10/23 00:08:42;;;;;;;;;;;;;;;;;;351309;28;996;-65
2022/10/23 00:08:52;;;;;;;;;;;;;;;;;;351265;28;1010;-65
2022/10/23 00:09:03;;;;;;;;;;;;;;;;;;351377;28;793;-65
2022/10/23 00:09:16;;;;;;;;;;;;;;;;;;351310;28;1035;-65
2022/10/23 00:09:26;;;;;;;;;;;;;;;;;;351294;28;940;-65
2022/10/23 00:09:37;;;;;;;;;;;;;;;;;;351304;28;924;-65
2022/10/23 00:09:47;;;;;;;;;;;;;;;;;;351348;28;952;-65
2022/10/23 00:09:57;;;;;;;;;;;;;;;;;;351229;28;1261;-65
2022/10/23 00:10:08;;;;;;;;;;;;;;;;;;351339;28;925;-65
2022/10/23 00:10:18;;;;;;;;;;;;;;;;;;351370;28;880;-65
2022/10/23 00:10:28;;;;;;;;;;;;;;;;;;351297;28;904;-65
2022/10/23 00:10:40;;;;;;;;;;;;;;;;;;351311;28;971;-65
2022/10/23 00:10:50;;;;;;;;;;;;;;;;;;351373;28;852;-65
2022/10/23 00:11:04;;;;;;;;;;;;;;;;;;351223;28;983;-65
2022/10/23 00:11:16;;;;;;;;;;;;;;;;;;351332;28;1011;-65
2022/10/23 00:11:27;;;;;;;;;;;;;;;;;;351323;28;964;-64
2022/10/23 00:11:37;;;;;;;;;;;;;;;;;;351230;28;916;-65
2022/10/23 00:11:49;;;;;;;;;;;;;;;;;;351329;28;936;-65
2022/10/23 00:11:59;;;;;;;;;;;;;;;;;;351367;28;864;-65
2022/10/23 00:12:10;;;;;;;;;;;;;;;;;;351324;28;1030;-65
2022/10/23 00:12:20;;;;;;;;;;;;;;;;;;351333;28;794;-65
2022/10/23 00:12:31;;;;;;;;;;;;;;;;;;351305;28;845;-65
2022/10/23 00:12:41;;;;;;;;;;;;;;;;;;351324;28;845;-65
2022/10/23 00:12:51;;;;;;;;;;;;;;;;;;351369;28;1035;-65
2022/10/23 00:13:01;;;;;;;;;;;;;;;;;;350672;28;1753;-65
2022/10/23 00:13:12;;;;;;;;;;;;;;;;;;349955;28;1757;-65
2022/10/23 00:13:22;;;;;;;;;;;;;;;;;;349856;28;1817;-65
2022/10/23 00:13:32;;;;;;;;;;;;;;;;;;351360;28;980;-65
2022/10/23 00:13:43;;;;;;;;;;;;;;;;;;351261;28;1291;-65
2022/10/23 00:13:55;;;;;;;;;;;;;;;;;;351355;28;782;-65
2022/10/23 00:14:06;;;;;;;;;;;;;;;;;;351350;28;928;-65
2022/10/23 00:14:18;;;;;;;;;;;;;;;;;;351283;28;845;-65
2022/10/23 00:14:28;;;;;;;;;;;;;;;;;;351353;28;996;-65
2022/10/23 00:14:38;;;;;;;;;;;;;;;;;;351343;28;982;-65
2022/10/23 00:14:49;;;;;;;;;;;;;;;;;;351274;28;741;-65
2022/10/23 00:14:59;;;;;;;;;;;;;;;;;;351347;28;1006;-65
2022/10/23 00:15:09;;;;;;;;;;;;;;;;;;351248;28;794;-65
2022/10/23 00:15:21;;;;;;;;;;;;;;;;;;351368;28;856;-65
2022/10/23 00:15:34;;;;;;;;;;;;;;;;;;351342;28;948;-65
2022/10/23 00:15:44;;;;;;;;;;;;;;;;;;351265;28;1004;-64
2022/10/23 00:15:54;;;;;;;;;;;;;;;;;;351331;28;891;-65
2022/10/23 00:16:05;;;;;;;;;;;;;;;;;;351306;28;972;-65
2022/10/23 00:16:15;;;;;;;;;;;;;;;;;;351321;28;869;-65
2022/10/23 00:16:26;;;;;;;;;;;;;;;;;;351343;28;940;-65
2022/10/23 00:16:36;;;;;;;;;;;;;;;;;;351280;28;904;-65
2022/10/23 00:16:46;;;;;;;;;;;;;;;;;;350196;28;1996;-65
2022/10/23 00:16:56;;;;;;;;;;;;;;;;;;352530;28;1051;-65
2022/10/23 00:17:06;;;;;;;;;;;;;;;;;;352671;28;850;-65
2022/10/23 00:17:16;;;;;;;;;;;;;;;;;;352748;28;971;-65
2022/10/23 00:17:27;;;;;;;;;;;;;;;;;;352719;28;1015;-65
2022/10/23 00:17:37;;;;;;;;;;;;;;;;;;352756;28;837;-65
2022/10/23 00:17:48;;;;;;;;;;;;;;;;;;352668;28;987;-65
2022/10/23 00:17:58;;;;;;;;;;;;;;;;;;352771;28;864;-65
2022/10/23 00:18:08;;;;;;;;;;;;;;;;;;352719;28;975;-65
2022/10/23 00:18:18;;;;;;;;;;;;;;;;;;352761;28;841;-65
2022/10/23 00:18:29;;;;;;;;;;;;;;;;;;352717;28;988;-65
2022/10/23 00:18:39;;;;;;;;;;;;;;;;;;352325;28;1960;-65
2022/10/23 00:18:49;;;;;;;;;;;;;;;;;;351083;28;1341;-65
2022/10/23 00:19:00;;;;;;;;;;;;;;;;;;352762;28;1067;-65
2022/10/23 00:19:10;;;;;;;;;;;;;;;;;;352632;28;2047;-65
2022/10/23 00:19:20;;;;;;;;;;;;;;;;;;351896;28;1458;-65
2022/10/23 00:19:30;;;;;;;;;;;;;;;;;;352634;28;959;-65
2022/10/23 00:19:41;;;;;;;;;;;;;;;;;;352749;28;853;-65
2022/10/23 00:19:51;;;;;;;;;;;;;;;;;;352700;28;932;-65
2022/10/23 00:20:01;;;;;;;;;;;;;;;;;;352681;28;882;-65
2022/10/23 00:20:12;;;;;;;;;;;;;;;;;;352726;28;976;-65
2022/10/23 00:20:22;;;;;;;;;;;;;;;;;;352716;28;948;-65
2022/10/23 00:20:32;;;;;;;;;;;;;;;;;;352687;28;1019;-64
2022/10/23 00:20:42;;;;;;;;;;;;;;;;;;351537;28;2023;-65
2022/10/23 00:20:52;;;;;;;;;;;;;;;;;;352681;28;900;-65
2022/10/23 00:21:03;;;;;;;;;;;;;;;;;;352797;28;758;-65
2022/10/23 00:21:15;;;;;;;;;;;;;;;;;;352676;28;845;-65
2022/10/23 00:21:26;;;;;;;;;;;;;;;;;;352677;28;952;-65
2022/10/23 00:21:36;;;;;;;;;;;;;;;;;;352730;28;929;-65
2022/10/23 00:21:46;;;;;;;;;;;;;;;;;;352759;28;932;-65
2022/10/23 00:21:56;;;;;;;;;;;;;;;;;;352685;28;960;-65
2022/10/23 00:22:07;;;;;;;;;;;;;;;;;;352743;28;849;-65
2022/10/23 00:22:17;;;;;;;;;;;;;;;;;;352775;28;825;-65
2022/10/23 00:22:27;;;;;;;;;;;;;;;;;;352797;28;856;-64
2022/10/23 00:22:38;;;;;;;;;;;;;;;;;;352771;28;865;-65
2022/10/23 00:22:48;;;;;;;;;;;;;;;;;;352696;28;901;-65
2022/10/23 00:22:58;;;;;;;;;;;;;;;;;;352654;28;1138;-65
2022/10/23 00:23:08;;;;;;;;;;;;;;;;;;352778;28;1054;-65
2022/10/23 00:23:18;;;;;;;;;;;;;;;;;;352540;28;1143;-65
2022/10/23 00:23:29;;;;;;;;;;;;;;;;;;351840;28;1329;-65
2022/10/23 00:23:39;;;;;;;;;;;;;;;;;;351044;28;1499;-65
2022/10/23 00:23:49;;;;;;;;;;;;;;;;;;351382;28;940;-65
2022/10/23 00:24:00;;;;;;;;;;;;;;;;;;351300;28;944;-65
2022/10/23 00:24:10;;;;;;;;;;;;;;;;;;351374;28;991;-65
2022/10/23 00:24:20;;;;;;;;;;;;;;;;;;351323;28;1125;-64
2022/10/23 00:24:30;;;;;;;;;;;;;;;;;;351344;28;950;-65
2022/10/23 00:24:40;;;;;;;;;;;;;;;;;;351331;28;928;-65
2022/10/23 00:24:51;;;;;;;;;;;;;;;;;;351318;28;1019;-65
2022/10/23 00:25:01;;;;;;;;;;;;;;;;;;351318;28;1287;-65
2022/10/23 00:25:11;;;;;;;;;;;;;;;;;;351330;28;976;-65
2022/10/23 00:25:21;;;;;;;;;;;;;;;;;;351207;28;1200;-65
2022/10/23 00:25:32;;;;;;;;;;;;;;;;;;351196;28;1977;-65
2022/10/23 00:25:42;;;;;;;;;;;;;;;;;;351363;28;924;-65
2022/10/23 00:25:52;;;;;;;;;;;;;;;;;;351375;28;983;-65
2022/10/23 00:26:03;;;;;;;;;;;;;;;;;;351292;28;809;-65
2022/10/23 00:26:14;;;;;;;;;;;;;;;;;;351292;28;884;-65
2022/10/23 00:26:25;;;;;;;;;;;;;;;;;;351319;28;1007;-65
2022/10/23 00:26:37;;;;;;;;;;;;;;;;;;351348;28;920;-65
2022/10/23 00:26:50;;;;;;;;;;;;;;;;;;351381;28;932;-65
2022/10/23 00:27:00;;;;;;;;;;;;;;;;;;351322;28;908;-65
2022/10/23 00:27:10;;;;;;;;;;;;;;;;;;351285;28;1007;-65
2022/10/23 00:27:20;;;;;;;;;;;;;;;;;;351360;28;967;-65
2022/10/23 00:27:31;;;;;;;;;;;;;;;;;;351353;28;987;-65
2022/10/23 00:27:41;;;;;;;;;;;;;;;;;;351246;28;1023;-65
2022/10/23 00:27:51;;;;;;;;;;;;;;;;;;350264;28;1899;-65
2022/10/23 00:28:02;;;;;;;;;;;;;;;;;;351291;28;930;-65
2022/10/23 00:28:12;;;;;;;;;;;;;;;;;;351316;28;932;-65
2022/10/23 00:28:23;;;;;;;;;;;;;;;;;;351339;28;1822;-65
2022/10/23 00:28:34;;;;;;;;;;;;;;;;;;351298;28;979;-65
2022/10/23 00:28:48;;;;;;;;;;;;;;;;;;351314;28;952;-65
2022/10/23 00:28:58;;;;;;;;;;;;;;;;;;351275;28;979;-65
2022/10/23 00:29:09;;;;;;;;;;;;;;;;;;351319;28;979;-65
2022/10/23 00:29:19;;;;;;;;;;;;;;;;;;351279;28;1039;-65
2022/10/23 00:29:30;;;;;;;;;;;;;;;;;;351314;28;972;-65
2022/10/23 00:29:40;;;;;;;;;;;;;;;;;;351219;28;1186;-65
2022/10/23 00:29:50;;;;;;;;;;;;;;;;;;349789;28;1773;-65
2022/10/23 00:30:01;;;;;;;;;;;;;;;;;;349854;28;920;-65
2022/10/23 00:30:11;;;;;;;;;;;;;;;;;;349939;28;1011;-65
2022/10/23 00:30:21;;;;;;;;;;;;;;;;;;349861;28;1307;-65
2022/10/23 00:30:31;;;;;;;;;;;;;;;;;;349930;28;916;-65
2022/10/23 00:30:41;;;;;;;;;;;;;;;;;;349839;28;1015;-65
2022/10/23 00:30:52;;;;;;;;;;;;;;;;;;349945;28;853;-65
2022/10/23 00:31:02;;;;;;;;;;;;;;;;;;349913;28;1020;-65
2022/10/23 00:31:13;;;;;;;;;;;;;;;;;;349948;28;869;-65
2022/10/23 00:31:24;;;;;;;;;;;;;;;;;;350288;28;1148;-65
2022/10/23 00:31:34;;;;;;;;;;;;;;;;;;351288;28;952;-65
2022/10/23 00:31:44;;;;;;;;;;;;;;;;;;351298;28;995;-65
2022/10/23 00:31:55;;;;;;;;;;;;;;;;;;351295;28;802;-65
2022/10/23 00:32:05;;;;;;;;;;;;;;;;;;351266;28;987;-65
2022/10/23 00:32:15;;;;;;;;;;;;;;;;;;351315;28;1098;-65
2022/10/23 00:32:26;;;;;;;;;;;;;;;;;;351182;28;997;-65
2022/10/23 00:32:36;;;;;;;;;;;;;;;;;;351374;28;833;-65
2022/10/23 00:32:47;;;;;;;;;;;;;;;;;;351346;28;828;-65
2022/10/23 00:32:57;;;;;;;;;;;;;;;;;;351171;28;1229;-66
2022/10/23 00:33:09;;;;;;;;;;;;;;;;;;351225;28;1069;-65
2022/10/23 00:33:19;;;;;;;;;;;;;;;;;;351289;28;1028;-65
2022/10/23 00:33:30;;;;;;;;;;;;;;;;;;351273;28;956;-65
2022/10/23 00:33:41;;;;;;;;;;;;;;;;;;351310;28;987;-65
2022/10/23 00:33:51;;;;;;;;;;;;;;;;;;351275;28;908;-65
2022/10/23 00:34:02;;;;;;;;;;;;;;;;;;351343;28;794;-65
2022/10/23 00:34:13;;;;;;;;;;;;;;;;;;351284;28;913;-65
2022/10/23 00:34:23;;;;;;;;;;;;;;;;;;351332;28;896;-65
2022/10/23 00:34:33;;;;;;;;;;;;;;;;;;351242;28;980;-65
2022/10/23 00:34:43;;;;;;;;;;;;;;;;;;351327;28;865;-65
2022/10/23 00:34:53;;;;;;;;;;;;;;;;;;351303;28;1022;-65
2022/10/23 00:35:04;;;;;;;;;;;;;;;;;;351314;28;956;-65
2022/10/23 00:35:14;;;;;;;;;;;;;;;;;;351299;28;936;-65
2022/10/23 00:35:24;;;;;;;;;;;;;;;;;;351309;28;944;-65
2022/10/23 00:35:41;;;;;;;;;;;;;;;;;;351335;28;1004;-65
2022/10/23 00:35:51;;;;;;;;;;;;;;;;;;351309;28;935;-65
2022/10/23 00:36:06;;;;;;;;;;;;;;;;;;351204;28;948;-65
2022/10/23 00:36:18;;;;;;;;;;;;;;;;;;351278;28;1685;-65
2022/10/23 00:36:28;;;;;;;;;;;;;;;;;;351353;28;893;-65
2022/10/23 00:36:38;;;;;;;;;;;;;;;;;;351353;28;1011;-65
2022/10/23 00:36:48;;;;;;;;;;;;;;;;;;351248;28;981;-65
2022/10/23 00:36:59;;;;;;;;;;;;;;;;;;351308;28;940;-65
2022/10/23 00:37:09;;;;;;;;;;;;;;;;;;351288;28;838;-65
2022/10/23 00:37:19;;;;;;;;;;;;;;;;;;351294;28;913;-65
2022/10/23 00:37:30;;;;;;;;;;;;;;;;;;351322;28;889;-65
2022/10/23 00:37:40;;;;;;;;;;;;;;;;;;351302;28;999;-65
2022/10/23 00:37:50;;;;;;;;;;;;;;;;;;351313;28;953;-65
2022/10/23 00:38:00;;;;;;;;;;;;;;;;;;350595;28;1888;-65
2022/10/23 00:38:11;;;;;;;;;;;;;;;;;;351273;28;933;-65
2022/10/23 00:38:21;;;;;;;;;;;;;;;;;;351078;28;1978;-64
2022/10/23 00:38:31;;;;;;;;;;;;;;;;;;351198;28;912;-65
2022/10/23 00:38:41;;;;;;;;;;;;;;;;;;350233;28;1808;-65
2022/10/23 00:38:52;;;;;;;;;;;;;;;;;;351235;28;908;-65
2022/10/23 00:39:03;;;;;;;;;;;;;;;;;;351178;28;1082;-65
2022/10/23 00:39:13;;;;;;;;;;;;;;;;;;351228;28;853;-65
2022/10/23 00:39:23;;;;;;;;;;;;;;;;;;351171;28;960;-65
2022/10/23 00:39:33;;;;;;;;;;;;;;;;;;351229;28;968;-65
2022/10/23 00:39:43;;;;;;;;;;;;;;;;;;351174;28;1067;-65
2022/10/23 00:39:54;;;;;;;;;;;;;;;;;;351229;28;864;-65
2022/10/23 00:40:04;;;;;;;;;;;;;;;;;;351288;28;1804;-65
2022/10/23 00:40:15;;;;;;;;;;;;;;;;;;352118;28;924;-65
2022/10/23 00:40:25;;;;;;;;;;;;;;;;;;350839;28;1475;-65
2022/10/23 00:40:36;;;;;;;;;;;;;;;;;;351310;28;976;-65
2022/10/23 00:40:46;;;;;;;;;;;;;;;;;;351288;28;1022;-65
2022/10/23 00:40:56;;;;;;;;;;;;;;;;;;351381;28;913;-65
2022/10/23 00:41:07;;;;;;;;;;;;;;;;;;351272;28;1000;-65
2022/10/23 00:41:22;;;;;;;;;;;;;;;;;;351278;28;940;-65
2022/10/23 00:41:32;;;;;;;;;;;;;;;;;;349748;28;1769;-65
2022/10/23 00:41:42;;;;;;;;;;;;;;;;;;349457;28;1770;-65
2022/10/23 00:41:52;;;;;;;;;;;;;;;;;;350015;28;956;-65
2022/10/23 00:42:03;;;;;;;;;;;;;;;;;;349891;28;916;-65
2022/10/23 00:42:15;;;;;;;;;;;;;;;;;;349759;28;924;-65
2022/10/23 00:42:26;;;;;;;;;;;;;;;;;;349928;28;983;-65
2022/10/23 00:42:36;;;;;;;;;;;;;;;;;;349863;28;976;-65
2022/10/23 00:42:46;;;;;;;;;;;;;;;;;;349902;28;940;-65
2022/10/23 00:42:56;;;;;;;;;;;;;;;;;;349854;28;936;-65
2022/10/23 00:43:15;;;;;;;;;;;;;;;;;;349930;28;996;-65
2022/10/23 00:43:27;;;;;;;;;;;;;;;;;;349866;28;1278;-65
2022/10/23 00:43:53;;;;;;;;;;;;;;;;;;349922;28;992;-65
2022/10/23 00:44:06;;;;;;;;;;;;;;;;;;349897;28;898;-65
2022/10/23 00:44:17;;;;;;;;;;;;;;;;;;349812;28;1069;-65
2022/10/23 00:44:27;;;;;;;;;;;;;;;;;;349880;28;1159;-65
2022/10/23 00:44:40;;;;;;;;;;;;;;;;;;349875;28;1128;-65
2022/10/23 00:44:50;;;;;;;;;;;;;;;;;;349872;28;797;-65
2022/10/23 00:45:09;;;;;;;;;;;;;;;;;;349625;28;1813;-65
2022/10/23 00:45:25;;;;;;;;;;;;;;;;;;349529;28;1782;-65
2022/10/23 00:45:35;;;;;;;;;;;;;;;;;;349919;28;995;-65
2022/10/23 00:45:45;;;;;;;;;;;;;;;;;;349860;28;941;-65
2022/10/23 00:45:55;;;;;;;;;;;;;;;;;;349952;28;996;-65
2022/10/23 00:46:06;;;;;;;;;;;;;;;;;;349846;28;953;-65
2022/10/23 00:46:16;;;;;;;;;;;;;;;;;;349908;28;972;-65
2022/10/23 00:46:26;;;;;;;;;;;;;;;;;;349759;28;917;-64
2022/10/23 00:46:37;;;;;;;;;;;;;;;;;;349918;28;842;-65
2022/10/23 00:46:48;;;;;;;;;;;;;;;;;;349636;28;2067;-65
2022/10/23 00:46:58;;;;;;;;;;;;;;;;;;352560;28;975;-65
2022/10/23 00:47:09;;;;;;;;;;;;;;;;;;352723;28;925;-65
2022/10/23 00:47:19;;;;;;;;;;;;;;;;;;352675;28;920;-65
2022/10/23 00:47:30;;;;;;;;;;;;;;;;;;352706;28;948;-65
2022/10/23 00:47:40;;;;;;;;;;;;;;;;;;352713;28;853;-65
2022/10/23 00:47:50;;;;;;;;;;;;;;;;;;352681;28;959;-65
2022/10/23 00:48:01;;;;;;;;;;;;;;;;;;352758;28;790;-65
2022/10/23 00:48:11;;;;;;;;;;;;;;;;;;352713;28;1002;-65
2022/10/23 00:48:22;;;;;;;;;;;;;;;;;;351466;28;1825;-65
2022/10/23 00:48:32;;;;;;;;;;;;;;;;;;349878;28;991;-65
2022/10/23 00:48:42;;;;;;;;;;;;;;;;;;348887;28;1825;-65
2022/10/23 00:48:52;;;;;;;;;;;;;;;;;;351377;28;1522;-65
2022/10/23 00:49:04;;;;;;;;;;;;;;;;;;352705;28;920;-65
2022/10/23 00:49:14;;;;;;;;;;;;;;;;;;352719;28;924;-65
2022/10/23 00:49:26;;;;;;;;;;;;;;;;;;352570;28;985;-65
2022/10/23 00:49:37;;;;;;;;;;;;;;;;;;352702;28;959;-65
2022/10/23 00:49:47;;;;;;;;;;;;;;;;;;352717;28;813;-65
2022/10/23 00:49:59;;;;;;;;;;;;;;;;;;352676;28;979;-65
2022/10/23 00:50:09;;;;;;;;;;;;;;;;;;352695;28;936;-65
2022/10/23 00:50:21;;;;;;;;;;;;;;;;;;352699;28;967;-65
2022/10/23 00:50:32;;;;;;;;;;;;;;;;;;352596;28;920;-65
2022/10/23 00:50:43;;;;;;;;;;;;;;;;;;352514;28;999;-65
2022/10/23 00:50:53;;;;;;;;;;;;;;;;;;352687;28;896;-65
2022/10/23 00:51:04;;;;;;;;;;;;;;;;;;352615;28;1119;-65
2022/10/23 00:51:14;;;;;;;;;;;;;;;;;;352372;28;1406;-65
2022/10/23 00:51:26;;;;;;;;;;;;;;;;;;352711;28;940;-65
2022/10/23 00:51:42;;;;;;;;;;;;;;;;;;352684;28;845;-65
2022/10/23 00:51:54;;;;;;;;;;;;;;;;;;352698;28;967;-65
2022/10/23 00:52:06;;;;;;;;;;;;;;;;;;352726;28;1034;-65
2022/10/23 00:52:16;;;;;;;;;;;;;;;;;;352688;28;865;-65
2022/10/23 00:52:27;;;;;;;;;;;;;;;;;;352641;28;987;-65
2022/10/23 00:52:40;;;;;;;;;;;;;;;;;;352657;28;951;-65
2022/10/23 00:52:51;;;;;;;;;;;;;;;;;;352653;28;967;-65
2022/10/23 00:53:02;;;;;;;;;;;;;;;;;;352709;28;944;-65
2022/10/23 00:53:13;;;;;;;;;;;;;;;;;;351882;28;1522;-65
2022/10/23 00:53:23;;;;;;;;;;;;;;;;;;349832;28;1019;-65
2022/10/23 00:53:34;;;;;;;;;;;;;;;;;;349888;28;940;-65
2022/10/23 00:53:44;;;;;;;;;;;;;;;;;;349904;28;913;-65
2022/10/23 00:53:56;;;;;;;;;;;;;;;;;;349917;28;944;-65
2022/10/23 00:54:07;;;;;;;;;;;;;;;;;;349905;28;858;-65
2022/10/23 00:54:18;;;;;;;;;;;;;;;;;;349930;28;866;-65
2022/10/23 00:54:31;;;;;;;;;;;;;;;;;;349915;28;1007;-65
2022/10/23 00:54:42;;;;;;;;;;;;;;;;;;349807;28;932;-65
2022/10/23 00:54:53;;;;;;;;;;;;;;;;;;349927;28;960;-65
2022/10/23 00:55:03;;;;;;;;;;;;;;;;;;349894;28;1003;-65
2022/10/23 00:55:14;;;;;;;;;;;;;;;;;;349882;28;904;-65
2022/10/23 00:55:25;;;;;;;;;;;;;;;;;;349938;28;956;-65
2022/10/23 00:55:37;;;;;;;;;;;;;;;;;;349853;28;925;-65
2022/10/23 00:55:48;;;;;;;;;;;;;;;;;;349854;28;932;-65
2022/10/23 00:55:59;;;;;;;;;;;;;;;;;;349935;28;849;-65
2022/10/23 00:56:09;;;;;;;;;;;;;;;;;;349912;28;955;-65
2022/10/23 00:56:20;;;;;;;;;;;;;;;;;;349929;28;806;-65
2022/10/23 00:56:32;;;;;;;;;;;;;;;;;;350051;28;983;-65
2022/10/23 00:56:43;;;;;;;;;;;;;;;;;;350061;28;945;-65
2022/10/23 00:56:54;;;;;;;;;;;;;;;;;;350166;28;992;-65
2022/10/23 00:57:06;;;;;;;;;;;;;;;;;;350145;28;921;-65
2022/10/23 00:57:17;;;;;;;;;;;;;;;;;;350154;28;771;-65
2022/10/23 00:57:27;;;;;;;;;;;;;;;;;;350248;28;1014;-65
2022/10/23 00:57:39;;;;;;;;;;;;;;;;;;350138;28;956;-65
2022/10/23 00:57:50;;;;;;;;;;;;;;;;;;350140;28;1023;-65
2022/10/23 00:58:01;;;;;;;;;;;;;;;;;;350120;28;830;-65
2022/10/23 00:58:16;;;;;;;;;;;;;;;;;;350173;28;1023;-64
2022/10/23 00:58:26;;;;;;;;;;;;;;;;;;350116;28;928;-65
2022/10/23 00:58:36;;;;;;;;;;;;;;;;;;350158;28;1007;-65
2022/10/23 00:58:47;;;;;;;;;;;;;;;;;;349927;28;1023;-65
2022/10/23 00:58:57;;;;;;;;;;;;;;;;;;350094;28;956;-65
2022/10/23 00:59:07;;;;;;;;;;;;;;;;;;350180;28;849;-65
2022/10/23 00:59:17;;;;;;;;;;;;;;;;;;350246;28;948;-65
2022/10/23 00:59:28;;;;;;;;;;;;;;;;;;350112;28;771;-65
2022/10/23 00:59:39;;;;;;;;;;;;;;;;;;350172;28;929;-65
2022/10/23 00:59:49;;;;;;;;;;;;;;;;;;350161;28;1011;-65
2022/10/23 00:59:59;;;;;;;;;;;;;;;;;;350189;28;901;-65
2022/10/23 01:00:30;;;;;;;;;;;;;;;;;;351247;28;1280;-65
2022/10/23 01:00:42;;;;;;;;;;;;;;;;;;351539;28;829;-65
2022/10/23 01:00:54;;;;;;;;;;;;;;;;;;351470;28;1019;-65
2022/10/23 01:01:19;;;;;;;;;;;;;;;;;;351569;28;849;-64
2022/10/23 01:01:29;;;;;;;;;;;;;;;;;;351487;28;964;-65
2022/10/23 01:01:39;;;;;;;;;;;;;;;;;;351553;28;948;-65
2022/10/23 01:01:50;;;;;;;;;;;;;;;;;;351596;28;928;-65
2022/10/23 01:02:00;;;;;;;;;;;;;;;;;;351612;28;790;-65
2022/10/23 01:02:10;;;;;;;;;;;;;;;;;;351573;28;913;-65
2022/10/23 01:02:20;;;;;;;;;;;;;;;;;;351606;28;941;-65
2022/10/23 01:02:31;;;;;;;;;;;;;;;;;;351556;28;932;-65
2022/10/23 01:02:41;;;;;;;;;;;;;;;;;;351492;28;1370;-65
2022/10/23 01:02:53;;;;;;;;;;;;;;;;;;351527;28;836;-65
2022/10/23 01:03:03;;;;;;;;;;;;;;;;;;351560;28;1035;-65
2022/10/23 01:03:14;;;;;;;;;;;;;;;;;;350055;28;1836;-65
2022/10/23 01:03:26;;;;;;;;;;;;;;;;;;350150;28;975;-65
2022/10/23 01:03:36;;;;;;;;;;;;;;;;;;350160;28;932;-65
2022/10/23 01:03:47;;;;;;;;;;;;;;;;;;350129;28;1111;-65
2022/10/23 01:03:58;;;;;;;;;;;;;;;;;;350168;28;794;-65
2022/10/23 01:04:08;;;;;;;;;;;;;;;;;;350134;28;983;-65
2022/10/23 01:04:19;;;;;;;;;;;;;;;;;;350130;28;976;-65
2022/10/23 01:04:30;;;;;;;;;;;;;;;;;;350084;28;1021;-65
2022/10/23 01:04:40;;;;;;;;;;;;;;;;;;350143;28;815;-65
2022/10/23 01:04:50;;;;;;;;;;;;;;;;;;350121;28;1007;-65
2022/10/23 01:05:00;;;;;;;;;;;;;;;;;;350101;28;964;-65
2022/10/23 01:05:11;;;;;;;;;;;;;;;;;;350052;28;1095;-65
2022/10/23 01:05:28;;;;;;;;;;;;;;;;;;350167;28;825;-65
2022/10/23 01:05:46;;;;;;;;;;;;;;;;;;350173;28;924;-65
2022/10/23 01:06:15;;;;;;;;;;;;;;;;;;350183;28;873;-65
2022/10/23 01:06:25;;;;;;;;;;;;;;;;;;350148;28;925;-65
2022/10/23 01:06:42;;;;;;;;;;;;;;;;;;350143;28;928;-65
2022/10/23 01:07:02;;;;;;;;;;;;;;;;;;350061;28;924;-64
2022/10/23 01:07:12;;;;;;;;;;;;;;;;;;350071;28;936;-65
2022/10/23 01:07:41;;;;;;;;;;;;;;;;;;350147;28;976;-65
2022/10/23 01:07:55;;;;;;;;;;;;;;;;;;350026;28;972;-65
2022/10/23 01:08:09;;;;;;;;;;;;;;;;;;350172;28;948;-65
2022/10/23 01:08:40;;;;;;;;;;;;;;;;;;350160;28;909;-65
2022/10/23 01:09:09;;;;;;;;;;;;;;;;;;350153;28;873;-65
2022/10/23 01:09:38;;;;;;;;;;;;;;;;;;350091;28;913;-65
2022/10/23 01:09:54;;;;;;;;;;;;;;;;;;350063;28;1038;-65
2022/10/23 01:10:09;;;;;;;;;;;;;;;;;;350129;28;956;-65
2022/10/23 01:10:51;;;;;;;;;;;;;;;;;;350117;28;1163;-65
2022/10/23 01:11:04;;;;;;;;;;;;;;;;;;344521;28;775;-65
2022/10/23 01:11:24;;;;;;;;;;;;;;;;;;344435;28;1266;-65
2022/10/23 01:11:39;;;;;;;;;;;;;;;;;;344518;28;1020;-65
2022/10/23 01:11:56;;;;;;;;;;;;;;;;;;344504;28;1000;-65
2022/10/23 01:12:29;;;;;;;;;;;;;;;;;;344460;28;820;-65
2022/10/23 01:12:52;;;;;;;;;;;;;;;;;;345824;28;1041;-65
2022/10/23 01:13:10;;;;;;;;;;;;;;;;;;349939;28;1046;-65
2022/10/23 01:13:27;;;;;;;;;;;;;;;;;;350147;28;991;-65
2022/10/23 01:13:46;;;;;;;;;;;;;;;;;;350145;28;983;-65
2022/10/23 01:14:07;;;;;;;;;;;;;;;;;;350103;28;884;-65
2022/10/23 01:14:26;;;;;;;;;;;;;;;;;;350071;28;870;-65
2022/10/23 01:14:39;;;;;;;;;;;;;;;;;;350180;28;984;-65
2022/10/23 01:14:54;;;;;;;;;;;;;;;;;;350086;28;956;-65
2022/10/23 01:15:20;;;;;;;;;;;;;;;;;;350170;28;968;-65
2022/10/23 01:15:38;;;;;;;;;;;;;;;;;;350013;28;960;-65
2022/10/23 01:16:03;;;;;;;;;;;;;;;;;;350121;28;996;-65
2022/10/23 01:16:22;;;;;;;;;;;;;;;;;;350104;28;794;-65
2022/10/23 01:16:38;;;;;;;;;;;;;;;;;;349934;28;1974;-65
2022/10/23 01:17:02;;;;;;;;;;;;;;;;;;350115;28;969;-65
2022/10/23 01:17:24;;;;;;;;;;;;;;;;;;351175;28;1570;-65
2022/10/23 01:17:54;;;;;;;;;;;;;;;;;;351313;28;929;-65
2022/10/23 01:18:23;;;;;;;;;;;;;;;;;;350816;28;1064;-65
2022/10/23 01:18:56;;;;;;;;;;;;;;;;;;351482;28;952;-65
2022/10/23 01:19:23;;;;;;;;;;;;;;;;;;351524;28;853;-65
2022/10/23 01:19:50;;;;;;;;;;;;;;;;;;351435;28;1284;-65
2022/10/23 01:20:03;;;;;;;;;;;;;;;;;;351483;28;1255;-65
2022/10/23 01:20:28;;;;;;;;;;;;;;;;;;351460;28;940;-65
2022/10/23 01:20:43;;;;;;;;;;;;;;;;;;351508;28;1019;-65
2022/10/23 01:21:07;;;;;;;;;;;;;;;;;;351523;28;921;-65
2022/10/23 01:21:21;;;;;;;;;;;;;;;;;;350009;28;857;-65
2022/10/23 01:21:54;;;;;;;;;;;;;;;;;;350542;28;1348;-65
2022/10/23 01:22:07;;;;;;;;;;;;;;;;;;347132;28;1330;-66
2022/10/23 01:22:17;;;;;;;;;;;;;;;;;;348790;28;1055;-65
2022/10/23 01:22:28;;;;;;;;;;;;;;;;;;351345;28;1129;-65
2022/10/23 01:22:44;;;;;;;;;;;;;;;;;;351534;28;924;-65
2022/10/23 01:23:10;;;;;;;;;;;;;;;;;;351485;28;928;-65
2022/10/23 01:23:26;;;;;;;;;;;;;;;;;;350790;28;1390;-65
2022/10/23 01:23:54;;;;;;;;;;;;;;;;;;351554;28;920;-65
2022/10/23 01:24:11;;;;;;;;;;;;;;;;;;351463;28;956;-65
2022/10/23 01:24:35;;;;;;;;;;;;;;;;;;351557;28;816;-65
2022/10/23 01:24:51;;;;;;;;;;;;;;;;;;351500;28;944;-65
2022/10/23 01:25:09;;;;;;;;;;;;;;;;;;351491;28;1041;-65
2022/10/23 01:25:29;;;;;;;;;;;;;;;;;;351564;28;983;-65
2022/10/23 01:26:02;;;;;;;;;;;;;;;;;;351490;28;932;-65
2022/10/23 01:26:15;;;;;;;;;;;;;;;;;;351463;28;948;-65
2022/10/23 01:26:40;;;;;;;;;;;;;;;;;;351540;28;991;-65
2022/10/23 01:27:02;;;;;;;;;;;;;;;;;;351507;28;847;-65
2022/10/23 01:27:24;;;;;;;;;;;;;;;;;;351462;28;1045;-65
2022/10/23 01:27:38;;;;;;;;;;;;;;;;;;351490;28;960;-65
2022/10/23 01:27:51;;;;;;;;;;;;;;;;;;351543;28;1020;-65
2022/10/23 01:28:05;;;;;;;;;;;;;;;;;;351500;28;837;-65
2022/10/23 01:28:20;;;;;;;;;;;;;;;;;;351438;28;999;-65
2022/10/23 01:28:34;;;;;;;;;;;;;;;;;;351510;28;1003;-65
2022/10/23 01:28:49;;;;;;;;;;;;;;;;;;351540;28;936;-65
2022/10/23 01:29:19;;;;;;;;;;;;;;;;;;351481;28;909;-65